Tweed New Haven Airport New Haven US
ICAO: KHVN
IATA: HVN
Category: Medium
Scheduled Services: Yes

Elevation: 12 ft
TransAlt. 18000 ft.

Airport Communications:
NEW YORK APP/DEP:124.075
ATIS:133.65
CTAF:124.8
GND:121.7
BRIDGEPORT RDO:109.8
NEW HAVEN TWR:124.8
UNICOM:122.95

KHVN Zoom In..

Runways:

(A) RW 02 length 5600 ft width 150 ft
ILS 109.10 / hdg 16

(B) RW 14 length 3626 ft width 100 ft
---- / hdg 144

(C) RW 20 length 5600 ft width 150 ft
---- / hdg 196

(D) RW 32 length 3626 ft width 100 ft
---- / hdg 324

Location; KHVN
Day. 24 / Time. 01.53 Zulu
* Altimeter: 29.63
* Temperature: 08° c. 46.4°f.
* Wind from: 260° Speed 10 kn.
Dewpoint: 04° c.
Visibility: 10 Statute Miles.
Clouds: Clear (automated report).

KHVN 240153Z 26010KT 10SM CLR 08/04 A2963 RMK AO2 SLP033 T00780039 $


Wind From 260°
Speed 10 kn.

YouTube Music Video
 
jpsmedia.com for Web Design  worldairports.se 2018   terms of use